Time;durP1;ratioP1;P1;durP2;ratioP2;P2;SDS_P1;SDS_P2;PMS_P1;PMS_P2;Temp;Humidity;BMP_temperature;BMP_pressure;BME280_temperature;BME280_humidity;BME280_pressure;Samples;Min_cycle;Max_cycle;Signal;HPM_P1;HPM_P2
2022/10/14 00:00:37;;;;;;;16.67;7.95;;;;;;;;;;5070228;28;20048;-48
2022/10/14 00:03:05;;;;;;;13.10;7.80;;;;;;;;;;5074380;28;20074;-47
2022/10/14 00:05:33;;;;;;;16.38;8.23;;;;;;;;;;5073801;28;20052;-49
2022/10/14 00:08:03;;;;;;;17.48;9.20;;;;;;;;;;5069723;28;20055;-47
2022/10/14 00:10:31;;;;;;;18.33;8.38;;;;;;;;;;5074277;28;20059;-49
2022/10/14 00:13:08;;;;;;;12.32;7.10;;;;;;;;;;5066869;28;20509;-48
2022/10/14 00:15:53;;;;;;;16.58;8.40;;;;;;;;;;5074047;28;20052;-50
2022/10/14 00:18:37;;;;;;;13.68;6.68;;;;;;;;;;5071999;28;20053;-52
2022/10/14 00:21:07;;;;;;;19.27;8.00;;;;;;;;;;5063356;28;20088;-49
2022/10/14 00:23:37;;;;;;;16.42;8.02;;;;;;;;;;5068285;28;20049;-48
2022/10/14 00:26:08;;;;;;;16.38;8.52;;;;;;;;;;5065488;28;20048;-50
2022/10/14 00:28:37;;;;;;;16.80;7.30;;;;;;;;;;5073653;28;20135;-49
2022/10/14 00:31:07;;;;;;;19.67;7.82;;;;;;;;;;5074174;28;20048;-49
2022/10/14 00:33:34;;;;;;;16.75;7.63;;;;;;;;;;5064180;28;20045;-48
2022/10/14 00:36:10;;;;;;;14.32;7.68;;;;;;;;;;5068153;28;20055;-48
2022/10/14 00:38:50;;;;;;;13.98;7.57;;;;;;;;;;5068013;28;20056;-51
2022/10/14 00:41:20;;;;;;;15.02;7.65;;;;;;;;;;5072077;28;20044;-49
2022/10/14 00:43:58;;;;;;;15.52;6.93;;;;;;;;;;5086897;28;20086;-49
2022/10/14 00:46:28;;;;;;;14.20;6.93;;;;;;;;;;5054189;28;20060;-48
2022/10/14 00:48:58;;;;;;;16.33;7.30;;;;;;;;;;5068248;28;20048;-50
2022/10/14 00:51:28;;;;;;;19.95;8.07;;;;;;;;;;5073863;28;20036;-47
2022/10/14 00:54:03;;;;;;;16.00;6.75;;;;;;;;;;5073728;28;20475;-49
2022/10/14 00:56:32;;;;;;;13.37;7.60;;;;;;;;;;5073492;28;20048;-49
2022/10/14 00:59:05;;;;;;;13.65;6.85;;;;;;;;;;5073214;28;20044;-49
2022/10/14 01:01:32;;;;;;;15.13;7.07;;;;;;;;;;5060395;28;20092;-49
2022/10/14 01:03:59;;;;;;;16.00;8.07;;;;;;;;;;5072613;28;20048;-47
2022/10/14 01:06:36;;;;;;;16.60;8.15;;;;;;;;;;5065890;28;20044;-48
2022/10/14 01:09:23;;;;;;;13.23;7.75;;;;;;;;;;5067599;28;20052;-47
2022/10/14 01:12:04;;;;;;;13.98;7.68;;;;;;;;;;5071038;28;20057;-48
2022/10/14 01:14:41;;;;;;;14.50;6.75;;;;;;;;;;5063322;28;20067;-49
2022/10/14 01:17:11;;;;;;;15.98;8.30;;;;;;;;;;5072066;28;20473;-51
2022/10/14 01:19:52;;;;;;;16.55;8.05;;;;;;;;;;5071889;28;20044;-46
2022/10/14 01:22:23;;;;;;;14.10;7.32;;;;;;;;;;5068752;28;20052;-48
2022/10/14 01:25:01;;;;;;;16.73;7.38;;;;;;;;;;5072403;28;20385;-51
2022/10/14 01:27:44;;;;;;;16.48;7.35;;;;;;;;;;5072168;28;20056;-49
2022/10/14 01:30:18;;;;;;;17.65;8.35;;;;;;;;;;5061613;28;20045;-48
2022/10/14 01:32:51;;;;;;;14.85;7.10;;;;;;;;;;5067195;28;20055;-51
2022/10/14 01:35:29;;;;;;;20.13;8.35;;;;;;;;;;5072352;28;20059;-50
2022/10/14 01:37:58;;;;;;;14.07;6.65;;;;;;;;;;5066652;28;20059;-49
2022/10/14 01:40:27;;;;;;;15.02;7.35;;;;;;;;;;5069699;28;20147;-49
2022/10/14 01:42:56;;;;;;;19.15;8.45;;;;;;;;;;5072163;28;20735;-51
2022/10/14 01:45:32;;;;;;;14.95;7.68;;;;;;;;;;5069504;28;20424;-48
2022/10/14 01:48:01;;;;;;;15.38;7.15;;;;;;;;;;5057842;28;20053;-48
2022/10/14 01:50:42;;;;;;;12.70;6.65;;;;;;;;;;5065080;28;20545;-47
2022/10/14 01:53:13;;;;;;;17.90;7.78;;;;;;;;;;5070031;28;20368;-46
2022/10/14 01:55:42;;;;;;;12.77;7.10;;;;;;;;;;5072939;28;20092;-48
2022/10/14 01:58:12;;;;;;;17.83;7.22;;;;;;;;;;5057483;28;20045;-47
2022/10/14 02:00:53;;;;;;;17.67;7.72;;;;;;;;;;5063360;28;20045;-48
2022/10/14 02:03:23;;;;;;;19.08;7.15;;;;;;;;;;5066939;28;20132;-48
2022/10/14 02:05:53;;;;;;;15.20;8.10;;;;;;;;;;5072755;28;20135;-48
2022/10/14 02:08:25;;;;;;;13.05;6.20;;;;;;;;;;5071872;28;20143;-46
2022/10/14 02:11:03;;;;;;;12.85;7.20;;;;;;;;;;5069541;28;20085;-51
2022/10/14 02:13:38;;;;;;;12.10;7.07;;;;;;;;;;5071613;28;20059;-51
2022/10/14 02:16:26;;;;;;;12.50;6.40;;;;;;;;;;5071537;28;20045;-51
2022/10/14 02:19:03;;;;;;;13.88;7.10;;;;;;;;;;5071948;28;20102;-48
2022/10/14 02:21:46;;;;;;;14.70;7.35;;;;;;;;;;5072159;28;20464;-48
2022/10/14 02:24:23;;;;;;;15.63;7.18;;;;;;;;;;5069513;28;20049;-48
2022/10/14 02:27:00;;;;;;;17.60;8.00;;;;;;;;;;5069690;28;20167;-51
2022/10/14 02:29:30;;;;;;;13.65;6.55;;;;;;;;;;5067390;28;20118;-48
2022/10/14 02:32:00;;;;;;;14.82;6.95;;;;;;;;;;5062855;28;20044;-47
2022/10/14 02:34:28;;;;;;;16.90;8.00;;;;;;;;;;5058885;28;20461;-48
2022/10/14 02:36:56;;;;;;;16.83;7.22;;;;;;;;;;5075937;28;20059;-48
2022/10/14 02:39:33;;;;;;;15.50;7.80;;;;;;;;;;5070140;28;20044;-48
2022/10/14 02:42:03;;;;;;;14.10;6.63;;;;;;;;;;5072053;28;20045;-48
2022/10/14 02:44:30;;;;;;;13.88;7.43;;;;;;;;;;5088042;28;20067;-51
2022/10/14 02:47:00;;;;;;;15.55;7.50;;;;;;;;;;5082843;28;20060;-48
2022/10/14 02:49:30;;;;;;;15.48;7.93;;;;;;;;;;5057729;28;20053;-48
2022/10/14 02:52:00;;;;;;;14.10;7.68;;;;;;;;;;5071948;28;20123;-48
2022/10/14 02:54:28;;;;;;;18.13;8.35;;;;;;;;;;5070999;28;20048;-48
2022/10/14 02:56:55;;;;;;;18.00;8.27;;;;;;;;;;5067863;28;20048;-51
2022/10/14 02:59:23;;;;;;;15.55;8.63;;;;;;;;;;5069216;28;20052;-47
2022/10/14 03:01:52;;;;;;;20.48;8.68;;;;;;;;;;5065763;28;20037;-50
2022/10/14 03:04:30;;;;;;;16.75;9.27;;;;;;;;;;5056317;28;20060;-47
2022/10/14 03:06:57;;;;;;;17.92;9.45;;;;;;;;;;5075351;28;20045;-47
2022/10/14 03:09:28;;;;;;;19.65;9.50;;;;;;;;;;5057316;28;20060;-49
2022/10/14 03:11:55;;;;;;;16.65;8.32;;;;;;;;;;5061064;28;20045;-45
2022/10/14 03:14:25;;;;;;;15.50;7.32;;;;;;;;;;5073379;28;20067;-47
2022/10/14 03:16:53;;;;;;;15.30;7.95;;;;;;;;;;5071118;28;20060;-48
2022/10/14 03:19:28;;;;;;;16.58;8.88;;;;;;;;;;5071019;28;20049;-49
2022/10/14 03:21:56;;;;;;;16.38;7.63;;;;;;;;;;5067556;28;20071;-50
2022/10/14 03:24:26;;;;;;;17.95;8.00;;;;;;;;;;5069291;28;20068;-48
2022/10/14 03:26:56;;;;;;;18.15;8.43;;;;;;;;;;5068319;28;20060;-48
2022/10/14 03:29:26;;;;;;;20.65;9.43;;;;;;;;;;5073505;28;20052;-50
2022/10/14 03:31:56;;;;;;;16.83;7.63;;;;;;;;;;5068411;28;20466;-48
2022/10/14 03:34:38;;;;;;;14.52;7.22;;;;;;;;;;5056379;28;20060;-47
2022/10/14 03:37:08;;;;;;;17.67;8.00;;;;;;;;;;5069686;28;20048;-48
2022/10/14 03:39:37;;;;;;;18.33;9.02;;;;;;;;;;5075522;28;20114;-49
2022/10/14 03:42:08;;;;;;;17.63;9.38;;;;;;;;;;5054978;28;20441;-47
2022/10/14 03:44:35;;;;;;;13.95;6.82;;;;;;;;;;5054971;28;20443;-47
2022/10/14 03:47:05;;;;;;;15.27;7.60;;;;;;;;;;5055308;28;20057;-48
2022/10/14 03:49:35;;;;;;;18.95;8.45;;;;;;;;;;5055467;28;20053;-48
2022/10/14 03:52:03;;;;;;;14.77;7.15;;;;;;;;;;5068908;28;20037;-47
2022/10/14 03:54:30;;;;;;;14.10;6.63;;;;;;;;;;5073700;28;20446;-47
2022/10/14 03:56:59;;;;;;;16.58;7.50;;;;;;;;;;5056670;28;20063;-50
2022/10/14 03:59:29;;;;;;;16.75;8.10;;;;;;;;;;5061723;28;20128;-46
2022/10/14 04:01:59;;;;;;;20.95;8.20;;;;;;;;;;5060545;28;20056;-48
2022/10/14 04:04:29;;;;;;;17.48;8.10;;;;;;;;;;5073801;28;20055;-47
2022/10/14 04:07:06;;;;;;;15.93;8.57;;;;;;;;;;5073684;28;20059;-47
2022/10/14 04:09:35;;;;;;;27.48;9.63;;;;;;;;;;5059688;28;20052;-49
2022/10/14 04:12:06;;;;;;;23.88;10.25;;;;;;;;;;5060371;28;20057;-49
2022/10/14 04:14:33;;;;;;;16.35;8.95;;;;;;;;;;5054718;28;20141;-48
2022/10/14 04:16:59;;;;;;;16.35;8.32;;;;;;;;;;5054823;28;20052;-48
2022/10/14 04:19:29;;;;;;;17.17;8.63;;;;;;;;;;5053962;28;20055;-51
2022/10/14 04:22:10;;;;;;;18.63;8.60;;;;;;;;;;5054553;28;20454;-47
2022/10/14 04:24:37;;;;;;;19.13;9.07;;;;;;;;;;5068678;28;20143;-46
2022/10/14 04:27:06;;;;;;;21.10;9.68;;;;;;;;;;5065162;28;20128;-47
2022/10/14 04:29:36;;;;;;;15.43;8.73;;;;;;;;;;5053589;28;20473;-48
2022/10/14 04:32:04;;;;;;;18.67;9.10;;;;;;;;;;5054638;28;20060;-46
2022/10/14 04:34:32;;;;;;;18.58;9.85;;;;;;;;;;5062697;28;20052;-48
2022/10/14 04:37:02;;;;;;;20.25;9.43;;;;;;;;;;5057561;28;20076;-47
2022/10/14 04:39:29;;;;;;;17.35;9.23;;;;;;;;;;5062783;28;20044;-47
2022/10/14 04:41:57;;;;;;;20.95;9.70;;;;;;;;;;5073971;28;20051;-47
2022/10/14 04:44:34;;;;;;;21.48;9.80;;;;;;;;;;5070998;28;20541;-47
2022/10/14 04:47:04;;;;;;;16.08;8.40;;;;;;;;;;5059145;28;20110;-47
2022/10/14 04:49:32;;;;;;;19.80;11.00;;;;;;;;;;5058254;28;20142;-48
2022/10/14 04:52:02;;;;;;;20.77;10.23;;;;;;;;;;5056101;28;20074;-48
2022/10/14 04:54:31;;;;;;;21.85;11.18;;;;;;;;;;5057924;28;20373;-48
2022/10/14 04:57:00;;;;;;;25.15;10.93;;;;;;;;;;5064104;28;20509;-46
2022/10/14 04:59:30;;;;;;;22.50;10.38;;;;;;;;;;5060903;28;20045;-47
2022/10/14 05:01:58;;;;;;;18.95;9.25;;;;;;;;;;5053677;28;20170;-47
2022/10/14 05:04:28;;;;;;;20.30;9.95;;;;;;;;;;5060528;28;20452;-46
2022/10/14 05:06:56;;;;;;;17.70;8.65;;;;;;;;;;5059781;28;20045;-46
2022/10/14 05:09:39;;;;;;;16.13;8.93;;;;;;;;;;5053109;28;20044;-46
2022/10/14 05:12:08;;;;;;;17.02;8.82;;;;;;;;;;5054370;28;20383;-48
2022/10/14 05:14:38;;;;;;;19.92;9.40;;;;;;;;;;5060143;28;20056;-46
2022/10/14 05:17:05;;;;;;;22.50;9.57;;;;;;;;;;5086919;28;20742;-46
2022/10/14 05:19:32;;;;;;;22.02;9.40;;;;;;;;;;5092472;28;20051;-46
2022/10/14 05:22:02;;;;;;;16.50;8.52;;;;;;;;;;5068887;28;20560;-48
2022/10/14 05:24:39;;;;;;;17.65;9.48;;;;;;;;;;5066457;28;20081;-46
2022/10/14 05:29:50;;;;;;;23.73;9.98;;;;;;;;;;5052873;28;20053;-48
2022/10/14 05:32:20;;;;;;;18.27;8.95;;;;;;;;;;5052690;28;20110;-47
2022/10/14 05:34:50;;;;;;;20.90;10.68;;;;;;;;;;5061461;28;20053;-47
2022/10/14 05:37:20;;;;;;;18.63;9.07;;;;;;;;;;5056572;28;20053;-49
2022/10/14 05:40:03;;;;;;;22.08;10.70;;;;;;;;;;5060444;28;20052;-46
2022/10/14 05:42:29;;;;;;;21.80;11.35;;;;;;;;;;5058662;28;20049;-46
2022/10/14 05:44:58;;;;;;;23.48;11.73;;;;;;;;;;5052295;28;20056;-50
2022/10/14 05:47:28;;;;;;;25.88;11.95;;;;;;;;;;5064985;28;20057;-48
2022/10/14 05:49:58;;;;;;;27.45;11.05;;;;;;;;;;5071680;28;20051;-49
2022/10/14 05:52:25;;;;;;;23.45;12.27;;;;;;;;;;5083356;28;20135;-47
2022/10/14 05:55:00;;;;;;;17.85;9.75;;;;;;;;;;5061981;28;20055;-49
2022/10/14 05:57:32;;;;;;;24.00;11.38;;;;;;;;;;5084436;28;20051;-48
2022/10/14 06:00:01;;;;;;;26.70;12.27;;;;;;;;;;5074114;28;20044;-48
2022/10/14 06:02:30;;;;;;;25.23;12.43;;;;;;;;;;5071994;28;20055;-49
2022/10/14 06:05:00;;;;;;;22.08;11.02;;;;;;;;;;5058563;28;20048;-50
2022/10/14 06:07:29;;;;;;;22.25;11.55;;;;;;;;;;5070406;28;20045;-46
2022/10/14 06:10:06;;;;;;;21.52;10.18;;;;;;;;;;5062160;28;20061;-47
2022/10/14 06:12:33;;;;;;;21.02;10.80;;;;;;;;;;5071038;28;20052;-49
2022/10/14 06:15:04;;;;;;;25.70;11.05;;;;;;;;;;5065053;28;20056;-48
2022/10/14 06:17:35;;;;;;;20.85;11.85;;;;;;;;;;5071783;28;20067;-51
2022/10/14 06:20:05;;;;;;;26.45;12.90;;;;;;;;;;5063530;28;20045;-50
2022/10/14 06:22:35;;;;;;;24.85;13.23;;;;;;;;;;5062945;28;20052;-48
2022/10/14 06:25:05;;;;;;;26.85;11.07;;;;;;;;;;5071940;28;20048;-48
2022/10/14 06:27:31;;;;;;;25.10;11.38;;;;;;;;;;5063920;28;20425;-46
2022/10/14 06:30:01;;;;;;;27.05;12.50;;;;;;;;;;5068137;28;20056;-47
2022/10/14 06:32:31;;;;;;;23.83;11.68;;;;;;;;;;5068037;28;20072;-48
2022/10/14 06:34:59;;;;;;;25.17;11.43;;;;;;;;;;5068834;28;20465;-49
2022/10/14 06:37:29;;;;;;;34.97;14.05;;;;;;;;;;5068577;28;20084;-47
2022/10/14 06:39:56;;;;;;;22.40;11.23;;;;;;;;;;5071600;28;20143;-48
2022/10/14 06:42:38;;;;;;;25.15;11.25;;;;;;;;;;5075561;28;20358;-47
2022/10/14 06:45:09;;;;;;;32.72;13.65;;;;;;;;;;5068754;28;20053;-46
2022/10/14 06:47:38;;;;;;;29.67;13.77;;;;;;;;;;5074152;28;20049;-50
2022/10/14 06:50:06;;;;;;;28.60;12.95;;;;;;;;;;5075898;28;20071;-46
2022/10/14 06:52:36;;;;;;;26.48;13.02;;;;;;;;;;5070690;28;20044;-48
2022/10/14 06:55:06;;;;;;;25.25;12.98;;;;;;;;;;5074722;28;20049;-47
2022/10/14 06:57:41;;;;;;;22.63;11.63;;;;;;;;;;5067366;28;20381;-47
2022/10/14 07:00:11;;;;;;;24.20;11.73;;;;;;;;;;5068625;28;20049;-52
2022/10/14 07:02:40;;;;;;;26.10;10.98;;;;;;;;;;5062753;28;20366;-50
2022/10/14 07:05:11;;;;;;;27.17;12.57;;;;;;;;;;5073074;28;20090;-51
2022/10/14 07:07:39;;;;;;;31.63;12.43;;;;;;;;;;5075046;28;20048;-52
2022/10/14 07:10:09;;;;;;;24.70;12.20;;;;;;;;;;5075375;28;20052;-49
2022/10/14 07:12:47;;;;;;;26.98;13.18;;;;;;;;;;5073617;28;20131;-49
2022/10/14 07:15:14;;;;;;;27.75;12.88;;;;;;;;;;5075371;28;20048;-48
2022/10/14 07:17:42;;;;;;;31.23;14.40;;;;;;;;;;5073911;28;20044;-49
2022/10/14 07:20:12;;;;;;;28.98;13.25;;;;;;;;;;5071757;28;20048;-51
2022/10/14 07:22:41;;;;;;;28.20;13.15;;;;;;;;;;5071208;28;20045;-52
2022/10/14 07:25:11;;;;;;;28.85;14.73;;;;;;;;;;5070789;28;20044;-47
2022/10/14 07:27:40;;;;;;;26.45;12.77;;;;;;;;;;5067476;28;20076;-48
2022/10/14 07:30:07;;;;;;;28.48;13.10;;;;;;;;;;5078391;28;20060;-47
2022/10/14 07:32:36;;;;;;;27.45;14.27;;;;;;;;;;5076914;28;20056;-49
2022/10/14 07:35:04;;;;;;;33.80;14.40;;;;;;;;;;5074063;28;20131;-48
2022/10/14 07:37:31;;;;;;;29.00;13.20;;;;;;;;;;5074171;28;20508;-49
2022/10/14 07:40:01;;;;;;;26.45;14.60;;;;;;;;;;5074005;28;20457;-51
2022/10/14 07:42:30;;;;;;;27.35;15.80;;;;;;;;;;5074431;28;20413;-47
2022/10/14 07:44:59;;;;;;;26.10;13.98;;;;;;;;;;5071764;28;20048;-47
2022/10/14 07:47:27;;;;;;;27.27;15.30;;;;;;;;;;5072956;28;20067;-46
2022/10/14 07:49:57;;;;;;;27.48;14.75;;;;;;;;;;5073896;28;20060;-48
2022/10/14 07:52:28;;;;;;;25.27;13.23;;;;;;;;;;5077780;28;20071;-49
2022/10/14 07:54:55;;;;;;;34.13;14.68;;;;;;;;;;5074163;28;20048;-49
2022/10/14 07:57:26;;;;;;;30.35;14.15;;;;;;;;;;5074190;28;20048;-49
2022/10/14 07:59:56;;;;;;;25.17;15.00;;;;;;;;;;5070765;28;20059;-49
2022/10/14 08:02:31;;;;;;;24.90;14.00;;;;;;;;;;5070187;28;20076;-49
2022/10/14 08:04:58;;;;;;;26.83;14.10;;;;;;;;;;5071479;28;20122;-51
2022/10/14 08:07:28;;;;;;;28.92;13.63;;;;;;;;;;5061944;28;20071;-49
2022/10/14 08:09:58;;;;;;;32.17;15.98;;;;;;;;;;5064080;28;20056;-50
2022/10/14 08:12:28;;;;;;;32.83;15.45;;;;;;;;;;5068875;28;20044;-52
2022/10/14 08:14:56;;;;;;;29.25;15.43;;;;;;;;;;5067310;28;20052;-48
2022/10/14 08:17:37;;;;;;;35.40;17.13;;;;;;;;;;5073107;28;20048;-48
2022/10/14 08:20:07;;;;;;;31.45;16.88;;;;;;;;;;5070297;28;20366;-51
2022/10/14 08:22:38;;;;;;;31.02;14.93;;;;;;;;;;5068131;28;20043;-50
2022/10/14 08:25:08;;;;;;;33.92;15.40;;;;;;;;;;5068265;28;20434;-47
2022/10/14 08:27:38;;;;;;;34.92;17.52;;;;;;;;;;5069488;28;20477;-48
2022/10/14 08:30:06;;;;;;;30.77;17.15;;;;;;;;;;5066612;28;20052;-46
2022/10/14 08:32:47;;;;;;;27.33;15.23;;;;;;;;;;5073309;28;20044;-48
2022/10/14 08:35:17;;;;;;;24.67;13.75;;;;;;;;;;5069245;28;20052;-48
2022/10/14 08:37:45;;;;;;;41.10;14.25;;;;;;;;;;5069170;28;20428;-48
2022/10/14 08:40:15;;;;;;;33.60;17.15;;;;;;;;;;5068339;28;20061;-48
2022/10/14 08:42:47;;;;;;;30.30;17.05;;;;;;;;;;5070575;28;20052;-48
2022/10/14 08:45:17;;;;;;;22.52;14.13;;;;;;;;;;5072441;28;20560;-49
2022/10/14 08:47:54;;;;;;;31.20;14.88;;;;;;;;;;5071887;28;20063;-49
2022/10/14 08:50:27;;;;;;;28.15;15.75;;;;;;;;;;5067849;28;20048;-46
2022/10/14 08:53:04;;;;;;;30.83;15.30;;;;;;;;;;5069854;28;20041;-47
2022/10/14 08:55:38;;;;;;;32.05;17.60;;;;;;;;;;5070252;28;20048;-49
2022/10/14 08:58:13;;;;;;;33.90;16.55;;;;;;;;;;5072410;28;20067;-48
2022/10/14 09:00:43;;;;;;;26.25;13.93;;;;;;;;;;5070748;28;20057;-47
2022/10/14 09:03:17;;;;;;;28.00;14.63;;;;;;;;;;5071305;28;20049;-47
2022/10/14 09:05:55;;;;;;;32.58;18.08;;;;;;;;;;5073110;28;20117;-48
2022/10/14 09:08:27;;;;;;;31.02;17.02;;;;;;;;;;5063552;28;20045;-44
2022/10/14 09:10:57;;;;;;;32.13;16.33;;;;;;;;;;5072618;28;20189;-47
2022/10/14 09:13:27;;;;;;;27.70;15.68;;;;;;;;;;5064321;28;20545;-46
2022/10/14 09:15:58;;;;;;;37.33;16.50;;;;;;;;;;5068515;28;20064;-50
2022/10/14 09:18:29;;;;;;;31.88;15.13;;;;;;;;;;5071372;28;20052;-48
2022/10/14 09:20:57;;;;;;;24.48;15.05;;;;;;;;;;5061320;28;20053;-49
2022/10/14 09:23:30;;;;;;;29.63;15.98;;;;;;;;;;5071461;28;20358;-51
2022/10/14 09:26:01;;;;;;;51.92;18.60;;;;;;;;;;5068523;28;20048;-47
2022/10/14 09:28:40;;;;;;;28.88;15.73;;;;;;;;;;5066443;28;20446;-45
2022/10/14 09:31:19;;;;;;;28.95;16.75;;;;;;;;;;5069625;28;20045;-45
2022/10/14 09:33:51;;;;;;;26.70;16.10;;;;;;;;;;5060988;28;20045;-48
2022/10/14 09:36:21;;;;;;;30.58;16.50;;;;;;;;;;5057609;28;20139;-47
2022/10/14 09:38:51;;;;;;;29.25;13.82;;;;;;;;;;5067820;28;20048;-48
2022/10/14 09:41:18;;;;;;;35.97;18.48;;;;;;;;;;5064240;28;20048;-47
2022/10/14 09:44:06;;;;;;;29.55;16.08;;;;;;;;;;5063264;28;20059;-49
2022/10/14 09:46:34;;;;;;;49.40;17.05;;;;;;;;;;5067361;28;20485;-50
2022/10/14 09:49:17;;;;;;;31.80;16.23;;;;;;;;;;5069709;28;20059;-48
2022/10/14 09:51:44;;;;;;;31.88;16.20;;;;;;;;;;5065155;28;20053;-52
2022/10/14 09:54:23;;;;;;;29.00;14.07;;;;;;;;;;5067765;28;20051;-48
2022/10/14 09:57:00;;;;;;;31.77;16.35;;;;;;;;;;5064993;28;20080;-49
2022/10/14 09:59:28;;;;;;;32.83;18.00;;;;;;;;;;5063179;28;20056;-49
2022/10/14 10:01:59;;;;;;;29.58;17.30;;;;;;;;;;5064281;28;20137;-48
2022/10/14 10:04:34;;;;;;;26.80;16.88;;;;;;;;;;5074491;28;20049;-49
2022/10/14 10:07:10;;;;;;;20.75;13.15;;;;;;;;;;5070768;28;20735;-52
2022/10/14 10:09:40;;;;;;;27.02;14.65;;;;;;;;;;5073656;28;20048;-48
2022/10/14 10:12:25;;;;;;;31.80;17.17;;;;;;;;;;5075753;28;20055;-47
2022/10/14 10:15:06;;;;;;;31.88;17.52;;;;;;;;;;5071992;28;20052;-48
2022/10/14 10:17:46;;;;;;;31.90;15.70;;;;;;;;;;5071630;28;20040;-46
2022/10/14 10:20:32;;;;;;;27.58;15.52;;;;;;;;;;5064743;28;20045;-47
2022/10/14 10:23:24;;;;;;;29.00;15.85;;;;;;;;;;5069347;28;20044;-48
2022/10/14 10:25:52;;;;;;;26.65;16.38;;;;;;;;;;5067316;28;20063;-48
2022/10/14 10:28:30;;;;;;;24.30;13.95;;;;;;;;;;5062781;28;20457;-47
2022/10/14 10:31:00;;;;;;;33.30;17.27;;;;;;;;;;5071545;28;20090;-47
2022/10/14 10:33:29;;;;;;;32.33;15.70;;;;;;;;;;5064220;28;20051;-45
2022/10/14 10:36:11;;;;;;;36.33;17.52;;;;;;;;;;5071148;28;20045;-47
2022/10/14 10:38:48;;;;;;;31.73;16.40;;;;;;;;;;5071235;28;20052;-51
2022/10/14 10:41:26;;;;;;;31.83;17.52;;;;;;;;;;5068751;28;20530;-47
2022/10/14 10:44:10;;;;;;;28.25;15.07;;;;;;;;;;5061409;28;20138;-48
2022/10/14 10:47:05;;;;;;;27.83;17.75;;;;;;;;;;5067574;28;20082;-51
2022/10/14 10:49:47;;;;;;;27.08;16.15;;;;;;;;;;5069096;28;20037;-45
2022/10/14 10:52:33;;;;;;;28.05;14.90;;;;;;;;;;5071099;28;20137;-47
2022/10/14 10:55:21;;;;;;;26.85;14.85;;;;;;;;;;5070258;28;20048;-47
2022/10/14 10:57:57;;;;;;;29.40;17.08;;;;;;;;;;5069750;28;20044;-48
2022/10/14 11:00:27;;;;;;;25.90;15.10;;;;;;;;;;5068474;28;20489;-49
2022/10/14 11:03:06;;;;;;;28.33;16.83;;;;;;;;;;5068134;28;20048;-50
2022/10/14 11:05:42;;;;;;;34.70;17.83;;;;;;;;;;5069976;28;20089;-53
2022/10/14 11:14:05;;;;;;;30.63;17.45;;;;;;;;;;5066180;28;20181;-50
2022/10/14 11:16:48;;;;;;;25.58;14.82;;;;;;;;;;5070674;28;20049;-49
2022/10/14 11:19:30;;;;;;;28.55;16.77;;;;;;;;;;5068302;28;20205;-50
2022/10/14 11:22:03;;;;;;;27.45;17.27;;;;;;;;;;5071161;28;20079;-50
2022/10/14 11:24:46;;;;;;;34.92;17.45;;;;;;;;;;5063990;28;20137;-49
2022/10/14 11:27:25;;;;;;;24.40;15.48;;;;;;;;;;5065779;28;20041;-50
2022/10/14 11:30:07;;;;;;;27.58;13.55;;;;;;;;;;5072775;28;20048;-49
2022/10/14 11:32:51;;;;;;;23.67;12.38;;;;;;;;;;5070210;28;20044;-50
2022/10/14 11:35:23;;;;;;;29.75;13.32;;;;;;;;;;5074060;28;20044;-52
2022/10/14 11:38:00;;;;;;;27.58;16.45;;;;;;;;;;5075043;28;20063;-53
2022/10/14 11:40:30;;;;;;;25.30;13.35;;;;;;;;;;5074687;28;20045;-52
2022/10/14 11:43:07;;;;;;;30.25;15.85;;;;;;;;;;5073718;28;20659;-49
2022/10/14 11:45:45;;;;;;;28.25;16.98;;;;;;;;;;5072084;28;20081;-48
2022/10/14 11:48:22;;;;;;;29.70;17.55;;;;;;;;;;5065781;28;20127;-50
2022/10/14 11:50:53;;;;;;;26.20;12.75;;;;;;;;;;5073267;28;20053;-49
2022/10/14 11:53:25;;;;;;;27.30;16.13;;;;;;;;;;5069895;28;20059;-48
2022/10/14 11:55:54;;;;;;;28.90;17.02;;;;;;;;;;5075023;28;20496;-48
2022/10/14 11:58:38;;;;;;;31.58;17.75;;;;;;;;;;5073941;28;20052;-49
2022/10/14 12:01:10;;;;;;;27.90;14.13;;;;;;;;;;5072656;28;20052;-50
2022/10/14 12:03:47;;;;;;;25.02;14.40;;;;;;;;;;5066719;28;20044;-52
2022/10/14 12:06:18;;;;;;;25.90;14.70;;;;;;;;;;5060250;28;20141;-50
2022/10/14 12:08:55;;;;;;;23.10;13.45;;;;;;;;;;5059469;28;20076;-51
2022/10/14 12:11:35;;;;;;;28.58;15.60;;;;;;;;;;5062724;28;20625;-51
2022/10/14 12:14:20;;;;;;;30.92;14.82;;;;;;;;;;5070755;28;20041;-55
2022/10/14 12:16:48;;;;;;;26.13;14.38;;;;;;;;;;5073593;28;20365;-50
2022/10/14 12:19:22;;;;;;;20.40;12.38;;;;;;;;;;5070583;28;20044;-49
2022/10/14 12:21:53;;;;;;;20.47;12.03;;;;;;;;;;5067924;28;20148;-51
2022/10/14 12:24:26;;;;;;;36.88;16.08;;;;;;;;;;5067108;28;20044;-51
2022/10/14 12:26:56;;;;;;;33.80;16.55;;;;;;;;;;5071841;28;20049;-50
2022/10/14 12:29:33;;;;;;;28.30;14.18;;;;;;;;;;5078082;28;20457;-50
2022/10/14 12:32:16;;;;;;;27.70;17.17;;;;;;;;;;5074388;28;20052;-50
2022/10/14 12:34:46;;;;;;;25.70;14.88;;;;;;;;;;5076204;28;20368;-53
2022/10/14 12:37:36;;;;;;;23.10;12.80;;;;;;;;;;5073756;28;20491;-51
2022/10/14 12:40:22;;;;;;;23.13;12.18;;;;;;;;;;5075516;28;20044;-53
2022/10/14 12:42:50;;;;;;;;;;;;;;;;;;5066168;28;20420;-51
2022/10/14 12:45:26;;;;;;;24.33;14.65;;;;;;;;;;5065183;28;20234;-51
2022/10/14 12:48:11;;;;;;;21.20;13.63;;;;;;;;;;5069705;28;20461;-52
2022/10/14 12:50:41;;;;;;;41.13;17.08;;;;;;;;;;5070424;28;20048;-50
2022/10/14 12:53:18;;;;;;;41.25;16.73;;;;;;;;;;5071443;28;20051;-53
2022/10/14 12:55:53;;;;;;;37.22;16.02;;;;;;;;;;5071140;28;20053;-51
2022/10/14 12:58:24;;;;;;;23.63;14.63;;;;;;;;;;5065821;28;20044;-51
2022/10/14 13:01:03;;;;;;;23.27;12.85;;;;;;;;;;5066653;28;20059;-52
2022/10/14 13:03:39;;;;;;;25.08;13.70;;;;;;;;;;5073632;28;20131;-51
2022/10/14 13:06:25;;;;;;;30.38;15.18;;;;;;;;;;5069092;28;20050;-51
2022/10/14 13:09:14;;;;;;;26.08;14.60;;;;;;;;;;5074591;28;20052;-51
2022/10/14 13:11:54;;;;;;;27.55;14.00;;;;;;;;;;5067256;28;20044;-49
2022/10/14 13:14:31;;;;;;;18.83;11.93;;;;;;;;;;5070397;28;20041;-48
2022/10/14 13:17:28;;;;;;;30.77;17.55;;;;;;;;;;5069008;28;20044;-49
2022/10/14 13:19:58;;;;;;;31.98;15.73;;;;;;;;;;5072296;28;20128;-50
2022/10/14 13:22:37;;;;;;;21.13;12.70;;;;;;;;;;5068106;28;20548;-53
2022/10/14 13:25:13;;;;;;;28.38;15.48;;;;;;;;;;5070570;28;20049;-49
2022/10/14 13:28:04;;;;;;;19.98;11.75;;;;;;;;;;5064644;28;20059;-50
2022/10/14 13:30:36;;;;;;;30.38;15.10;;;;;;;;;;5065193;28;20131;-50
2022/10/14 13:33:16;;;;;;;21.45;13.38;;;;;;;;;;5070310;28;20064;-49
2022/10/14 13:35:52;;;;;;;27.95;14.82;;;;;;;;;;5070317;28;20044;-49
2022/10/14 13:38:20;;;;;;;26.38;13.93;;;;;;;;;;5066877;28;20060;-49
2022/10/14 13:40:50;;;;;;;22.05;13.00;;;;;;;;;;5071070;28;20064;-48
2022/10/14 13:43:27;;;;;;;24.08;13.45;;;;;;;;;;5065463;28;20499;-49
2022/10/14 13:45:59;;;;;;;27.20;14.50;;;;;;;;;;5071483;28;20056;-50
2022/10/14 13:48:41;;;;;;;24.95;14.35;;;;;;;;;;5072090;28;20159;-48
2022/10/14 13:51:24;;;;;;;25.25;14.00;;;;;;;;;;5070822;28;20044;-47
2022/10/14 13:54:00;;;;;;;27.00;14.30;;;;;;;;;;5065923;28;20446;-52
2022/10/14 13:56:33;;;;;;;21.67;12.00;;;;;;;;;;5070713;28;20052;-51
2022/10/14 13:59:04;;;;;;;17.40;10.80;;;;;;;;;;5068105;28;20054;-50
2022/10/14 14:01:34;;;;;;;40.88;15.70;;;;;;;;;;5070720;28;20139;-50
2022/10/14 14:04:12;;;;;;;21.67;12.85;;;;;;;;;;5070728;28;20048;-50
2022/10/14 14:06:43;;;;;;;30.33;16.40;;;;;;;;;;5071327;28;20052;-49
2022/10/14 14:09:18;;;;;;;26.67;15.27;;;;;;;;;;5070936;28;20473;-48
2022/10/14 14:11:49;;;;;;;;;;;;;;;;;;5071937;28;20056;-47
2022/10/14 14:14:18;;;;;;;19.55;10.70;;;;;;;;;;5070969;28;19924;-49
2022/10/14 14:16:49;;;;;;;21.83;12.20;;;;;;;;;;5071568;28;20059;-48
2022/10/14 14:19:22;;;;;;;22.27;12.02;;;;;;;;;;5070441;28;20067;-49
2022/10/14 14:21:52;;;;;;;22.95;12.45;;;;;;;;;;5068622;28;20044;-48
2022/10/14 14:24:20;;;;;;;21.17;11.52;;;;;;;;;;5070877;28;20048;-48
2022/10/14 14:26:50;;;;;;;27.90;16.05;;;;;;;;;;5072007;28;20048;-47
2022/10/14 14:29:21;;;;;;;26.90;13.27;;;;;;;;;;5068403;28;20125;-48
2022/10/14 14:31:58;;;;;;;21.88;13.30;;;;;;;;;;5070932;28;20056;-48
2022/10/14 14:34:31;;;;;;;28.98;16.50;;;;;;;;;;5071287;28;20041;-47
2022/10/14 14:37:01;;;;;;;26.02;12.38;;;;;;;;;;5069390;28;20133;-46
2022/10/14 14:39:31;;;;;;;20.23;11.93;;;;;;;;;;5063171;28;20052;-46
2022/10/14 14:42:01;;;;;;;19.38;11.38;;;;;;;;;;5071509;28;20049;-48
2022/10/14 14:44:31;;;;;;;20.55;11.82;;;;;;;;;;5068933;28;20084;-49
2022/10/14 14:47:02;;;;;;;20.58;10.43;;;;;;;;;;5070346;28;20071;-52
2022/10/14 14:49:49;;;;;;;26.33;15.23;;;;;;;;;;5070412;28;20135;-51
2022/10/14 14:52:18;;;;;;;29.27;13.80;;;;;;;;;;5073599;28;20048;-50
2022/10/14 14:54:49;;;;;;;25.13;13.63;;;;;;;;;;5073186;28;20059;-50
2022/10/14 14:57:20;;;;;;;17.05;10.25;;;;;;;;;;5069238;28;20056;-52
2022/10/14 14:59:51;;;;;;;19.35;10.40;;;;;;;;;;5072292;28;20060;-51
2022/10/14 15:02:28;;;;;;;24.73;14.73;;;;;;;;;;5067778;28;20049;-52
2022/10/14 15:05:16;;;;;;;26.80;13.05;;;;;;;;;;5070366;28;20137;-50